createdAt,value
2017-05-06T00:00:06.953Z,0
2017-05-06T00:00:39.225Z,0
2017-05-06T00:01:12.157Z,0
2017-05-06T00:01:44.430Z,0
2017-05-06T00:02:16.693Z,0
2017-05-06T00:02:48.962Z,0
2017-05-06T00:03:21.227Z,0
2017-05-06T00:03:54.275Z,0
2017-05-06T00:04:26.543Z,0
2017-05-06T00:04:58.795Z,0
2017-05-06T00:05:31.068Z,0
2017-05-06T00:06:03.383Z,0
2017-05-06T00:06:35.646Z,0
2017-05-06T00:07:07.907Z,0
2017-05-06T00:07:41.170Z,0
2017-05-06T00:08:13.557Z,0
2017-05-06T00:08:45.830Z,0
2017-05-06T00:09:18.118Z,0
2017-05-06T00:09:50.415Z,0
2017-05-06T00:10:22.684Z,0
2017-05-06T00:10:55.771Z,0
2017-05-06T00:11:28.052Z,0
2017-05-06T00:12:00.332Z,0
2017-05-06T00:12:32.644Z,0
2017-05-06T00:13:04.956Z,0
2017-05-06T00:13:37.281Z,0
2017-05-06T00:14:09.578Z,0
2017-05-06T00:14:41.889Z,0
2017-05-06T00:15:28.808Z,0
2017-05-06T00:16:01.201Z,0
2017-05-06T00:16:33.575Z,0
2017-05-06T00:17:05.973Z,0
2017-05-06T00:17:38.384Z,0
2017-05-06T00:18:10.769Z,0
2017-05-06T00:18:43.184Z,0
2017-05-06T00:19:15.473Z,0
2017-05-06T00:19:47.764Z,0
2017-05-06T00:20:20.055Z,0
2017-05-06T00:20:52.395Z,0
2017-05-06T00:21:24.797Z,0
2017-05-06T00:21:57.194Z,0
2017-05-06T00:22:29.463Z,0
2017-05-06T00:23:01.735Z,0
2017-05-06T00:23:34.029Z,0
2017-05-06T00:24:06.303Z,0
2017-05-06T00:24:38.566Z,0
2017-05-06T00:25:10.840Z,0
2017-05-06T00:25:43.130Z,0
2017-05-06T00:26:15.523Z,0
2017-05-06T00:26:47.804Z,0
2017-05-06T00:27:20.067Z,0
2017-05-06T00:27:52.348Z,0
2017-05-06T00:28:25.269Z,0
2017-05-06T00:28:57.553Z,0
2017-05-06T00:29:29.806Z,0
2017-05-06T00:30:02.075Z,0
2017-05-06T00:30:34.370Z,0
2017-05-06T00:31:07.157Z,0
2017-05-06T00:31:40.274Z,0
2017-05-06T00:32:12.541Z,0
2017-05-06T00:32:44.861Z,0
2017-05-06T00:33:17.146Z,0
2017-05-06T00:33:49.421Z,0
2017-05-06T00:34:22.246Z,0
2017-05-06T00:34:54.552Z,0
2017-05-06T00:35:26.825Z,0
2017-05-06T00:35:59.113Z,0
2017-05-06T00:36:31.481Z,0
2017-05-06T00:37:03.763Z,0
2017-05-06T00:37:36.037Z,0
2017-05-06T00:38:08.295Z,0
2017-05-06T00:38:40.571Z,0
2017-05-06T00:39:12.919Z,0
2017-05-06T00:39:45.208Z,0
2017-05-06T00:40:17.487Z,0
2017-05-06T00:40:49.770Z,0
2017-05-06T00:41:22.064Z,0
2017-05-06T00:41:54.351Z,0
2017-05-06T00:42:26.748Z,0
2017-05-06T00:42:59.125Z,0
2017-05-06T00:43:31.533Z,0
2017-05-06T00:44:03.923Z,0
2017-05-06T00:44:36.323Z,0
2017-05-06T00:45:08.704Z,0
2017-05-06T00:45:41.101Z,0
2017-05-06T00:46:13.488Z,0
2017-05-06T00:46:45.885Z,0
2017-05-06T00:47:18.266Z,0
2017-05-06T00:47:50.666Z,0
2017-05-06T00:48:23.047Z,0
2017-05-06T00:48:55.444Z,0
2017-05-06T00:49:27.828Z,0
2017-05-06T00:50:00.229Z,0
2017-05-06T00:50:32.642Z,0
2017-05-06T00:51:05.036Z,0
2017-05-06T00:51:37.407Z,0
2017-05-06T00:52:09.787Z,0
2017-05-06T00:52:42.167Z,0
2017-05-06T00:53:14.541Z,0
2017-05-06T00:53:46.924Z,0
2017-05-06T00:54:19.315Z,0
2017-05-06T00:54:51.722Z,0
2017-05-06T00:55:24.118Z,0
2017-05-06T00:55:56.523Z,0
2017-05-06T00:56:28.887Z,0
2017-05-06T00:57:01.287Z,0
2017-05-06T00:57:33.673Z,0
2017-05-06T00:58:06.084Z,0
2017-05-06T00:58:38.478Z,0
2017-05-06T00:59:10.898Z,0
2017-05-06T00:59:43.289Z,0
2017-05-06T01:00:15.669Z,0
2017-05-06T01:00:48.084Z,0
2017-05-06T01:01:20.481Z,0
2017-05-06T01:01:52.912Z,0
2017-05-06T01:02:25.291Z,0
2017-05-06T01:02:57.682Z,0
2017-05-06T01:03:30.073Z,0
2017-05-06T01:04:02.451Z,0
2017-05-06T01:04:34.844Z,0
2017-05-06T01:05:07.243Z,0
2017-05-06T01:05:39.614Z,0
2017-05-06T01:06:11.985Z,0
2017-05-06T01:06:44.363Z,0
2017-05-06T01:07:16.763Z,0
2017-05-06T01:07:49.148Z,0
2017-05-06T01:08:21.534Z,0
2017-05-06T01:08:53.959Z,0
2017-05-06T01:09:26.355Z,0
2017-05-06T01:09:58.726Z,0
2017-05-06T01:10:31.112Z,0
2017-05-06T01:11:03.499Z,0
2017-05-06T01:11:35.895Z,0
2017-05-06T01:12:08.187Z,0
2017-05-06T01:12:40.458Z,0
2017-05-06T01:13:12.778Z,0
2017-05-06T01:13:45.059Z,0
2017-05-06T01:14:17.318Z,0
2017-05-06T01:14:49.732Z,0
2017-05-06T01:15:21.998Z,0
2017-05-06T01:15:54.267Z,0
2017-05-06T01:16:26.537Z,0
2017-05-06T01:16:59.760Z,0
2017-05-06T01:17:32.018Z,0
2017-05-06T01:18:04.847Z,0
2017-05-06T01:18:37.141Z,0
2017-05-06T01:19:09.422Z,0
2017-05-06T01:19:41.721Z,0
2017-05-06T01:20:14.024Z,0
2017-05-06T01:20:46.311Z,0
2017-05-06T01:21:18.590Z,0
2017-05-06T01:21:50.874Z,0
2017-05-06T01:22:23.277Z,0
2017-05-06T01:22:55.651Z,0
2017-05-06T01:23:28.026Z,0
2017-05-06T01:24:00.443Z,0
2017-05-06T01:24:32.817Z,0
2017-05-06T01:25:05.210Z,0
2017-05-06T01:25:37.598Z,0
2017-05-06T01:26:09.986Z,0
2017-05-06T01:26:42.373Z,0
2017-05-06T01:27:14.746Z,0
2017-05-06T01:27:47.147Z,0
2017-05-06T01:28:19.549Z,0
2017-05-06T01:28:51.933Z,0
2017-05-06T01:29:24.323Z,0
2017-05-06T01:29:56.726Z,0
2017-05-06T01:30:29.109Z,0
2017-05-06T01:31:01.512Z,0
2017-05-06T01:31:33.884Z,0
2017-05-06T01:32:06.169Z,0
2017-05-06T01:32:38.441Z,0
2017-05-06T01:33:10.708Z,0
2017-05-06T01:33:43.815Z,0
2017-05-06T01:34:16.103Z,0
2017-05-06T01:34:48.410Z,0
2017-05-06T01:35:20.688Z,0
2017-05-06T01:35:53.838Z,0
2017-05-06T01:36:26.141Z,0
2017-05-06T01:36:59.192Z,0
2017-05-06T01:37:31.464Z,0
2017-05-06T01:38:03.731Z,0
2017-05-06T01:38:36.028Z,0
2017-05-06T01:39:08.324Z,0
2017-05-06T01:39:41.372Z,0
2017-05-06T01:40:13.646Z,0
2017-05-06T01:40:45.910Z,0
2017-05-06T01:41:18.164Z,0
2017-05-06T01:41:50.439Z,0
2017-05-06T01:42:22.772Z,0
2017-05-06T01:42:55.097Z,0
2017-05-06T01:43:27.425Z,0
2017-05-06T01:43:59.758Z,0
2017-05-06T01:44:32.065Z,0
2017-05-06T01:45:04.375Z,0
2017-05-06T01:45:36.670Z,0
2017-05-06T01:46:08.982Z,0
2017-05-06T01:46:41.311Z,0
2017-05-06T01:47:13.614Z,0
2017-05-06T01:47:45.930Z,0
2017-05-06T01:48:18.237Z,0
2017-05-06T01:48:50.596Z,0
2017-05-06T01:49:22.906Z,0
2017-05-06T01:49:55.248Z,0
2017-05-06T01:50:27.568Z,0
2017-05-06T01:50:59.874Z,0
2017-05-06T01:51:32.190Z,0
2017-05-06T01:52:04.502Z,0
2017-05-06T01:52:36.825Z,0
2017-05-06T01:53:09.125Z,0
2017-05-06T01:53:41.431Z,0
2017-05-06T01:54:13.744Z,0
2017-05-06T01:54:46.050Z,0
2017-05-06T01:55:18.364Z,0
2017-05-06T01:55:50.665Z,0
2017-05-06T01:56:22.976Z,0
2017-05-06T01:56:55.289Z,0
2017-05-06T01:57:27.598Z,0
2017-05-06T01:57:59.911Z,0
2017-05-06T01:58:32.250Z,0
2017-05-06T01:59:04.559Z,0
2017-05-06T01:59:36.864Z,0
2017-05-06T02:00:09.212Z,0
2017-05-06T02:00:41.529Z,0
2017-05-06T02:01:13.841Z,0
2017-05-06T02:01:46.151Z,0
2017-05-06T02:02:18.450Z,0
2017-05-06T02:02:50.788Z,0
2017-05-06T02:03:23.108Z,0
2017-05-06T02:03:55.409Z,0
2017-05-06T02:04:27.727Z,0
2017-05-06T02:05:00.042Z,0
2017-05-06T02:05:32.372Z,0
2017-05-06T02:06:04.706Z,0
2017-05-06T02:06:37.015Z,0
2017-05-06T02:07:09.321Z,0
2017-05-06T02:07:41.648Z,0
2017-05-06T02:08:13.949Z,0
2017-05-06T02:08:46.263Z,0
2017-05-06T02:09:18.606Z,0
2017-05-06T02:09:50.953Z,0
2017-05-06T02:10:23.250Z,0
2017-05-06T02:10:55.561Z,0
2017-05-06T02:11:27.866Z,0
2017-05-06T02:12:00.198Z,0
2017-05-06T02:12:32.505Z,0
2017-05-06T02:13:04.802Z,0
2017-05-06T02:13:37.127Z,0
2017-05-06T02:14:09.442Z,0
2017-05-06T02:14:41.735Z,0
2017-05-06T02:15:14.034Z,0
2017-05-06T02:15:46.344Z,0
2017-05-06T02:16:18.667Z,0
2017-05-06T02:16:50.976Z,0
2017-05-06T02:17:23.279Z,0
2017-05-06T02:17:55.613Z,0
2017-05-06T02:18:27.913Z,0
2017-05-06T02:19:00.225Z,0
2017-05-06T02:19:32.518Z,0
2017-05-06T02:20:04.842Z,0
2017-05-06T02:20:37.160Z,0
2017-05-06T02:21:09.462Z,0
2017-05-06T02:21:41.780Z,0
2017-05-06T02:22:14.056Z,0
2017-05-06T02:22:46.305Z,0
2017-05-06T02:23:18.586Z,0
2017-05-06T02:23:50.856Z,0
2017-05-06T02:24:23.149Z,0
2017-05-06T02:24:55.442Z,0
2017-05-06T02:25:27.708Z,0
2017-05-06T02:25:59.982Z,0
2017-05-06T02:26:32.257Z,0
2017-05-06T02:27:04.527Z,0
2017-05-06T02:27:36.792Z,0
2017-05-06T02:28:09.058Z,0
2017-05-06T02:28:41.334Z,0
2017-05-06T02:29:13.614Z,0
2017-05-06T02:29:45.891Z,0
2017-05-06T02:30:18.147Z,0
2017-05-06T02:30:50.422Z,0
2017-05-06T02:31:22.692Z,0
2017-05-06T02:31:55.731Z,0
2017-05-06T02:32:27.997Z,0
2017-05-06T02:33:00.262Z,0
2017-05-06T02:33:32.683Z,0
2017-05-06T02:34:04.953Z,0
2017-05-06T02:34:37.233Z,0
2017-05-06T02:35:09.510Z,0
2017-05-06T02:35:41.789Z,0
2017-05-06T02:36:14.078Z,0
2017-05-06T02:36:46.346Z,0
2017-05-06T02:37:18.635Z,0
2017-05-06T02:37:51.780Z,0
2017-05-06T02:38:24.052Z,0
2017-05-06T02:38:56.405Z,0
2017-05-06T02:39:28.675Z,0
2017-05-06T02:40:00.938Z,0
2017-05-06T02:40:33.216Z,0
2017-05-06T02:41:05.494Z,0
2017-05-06T02:41:37.782Z,0
2017-05-06T02:42:10.090Z,0
2017-05-06T02:42:42.398Z,0
2017-05-06T02:43:14.703Z,0
2017-05-06T02:43:47.018Z,0
2017-05-06T02:44:19.329Z,0
2017-05-06T02:44:51.645Z,0
2017-05-06T02:45:23.955Z,0
2017-05-06T02:45:56.255Z,0
2017-05-06T02:46:28.554Z,0
2017-05-06T02:47:00.864Z,0
2017-05-06T02:47:33.187Z,0
2017-05-06T02:48:05.504Z,0
2017-05-06T02:48:37.835Z,0
2017-05-06T02:49:10.146Z,0
2017-05-06T02:49:42.455Z,0
2017-05-06T02:50:14.770Z,0
2017-05-06T02:50:47.093Z,0
2017-05-06T02:51:19.406Z,0
2017-05-06T02:51:51.717Z,0
2017-05-06T02:52:24.031Z,0
2017-05-06T02:52:56.326Z,0
2017-05-06T02:53:28.656Z,0
2017-05-06T02:54:00.965Z,0
2017-05-06T02:54:33.276Z,0
2017-05-06T02:55:05.613Z,0
2017-05-06T02:55:37.912Z,0
2017-05-06T02:56:10.219Z,0
2017-05-06T02:56:42.520Z,0
2017-05-06T02:57:14.836Z,0
2017-05-06T02:57:47.171Z,0
2017-05-06T02:58:19.489Z,0
2017-05-06T02:58:51.818Z,0
2017-05-06T02:59:24.121Z,0
2017-05-06T02:59:56.426Z,0
2017-05-06T03:00:28.749Z,0
2017-05-06T03:01:01.077Z,0
2017-05-06T03:01:33.392Z,0
2017-05-06T03:02:06.882Z,0
2017-05-06T03:02:39.184Z,0
2017-05-06T03:03:11.427Z,0
2017-05-06T03:03:44.318Z,0
2017-05-06T03:04:16.602Z,0
2017-05-06T03:04:48.900Z,0
2017-05-06T03:05:21.162Z,0
2017-05-06T03:05:53.423Z,0
2017-05-06T03:06:25.708Z,0
2017-05-06T03:06:57.980Z,0
2017-05-06T03:07:30.261Z,0
2017-05-06T03:08:02.573Z,0
2017-05-06T03:08:34.864Z,0
2017-05-06T03:09:07.875Z,0
2017-05-06T03:09:40.148Z,0
2017-05-06T03:10:12.433Z,0
2017-05-06T03:10:44.722Z,0
2017-05-06T03:11:16.991Z,0
2017-05-06T03:11:49.259Z,0
2017-05-06T03:12:21.535Z,0
2017-05-06T03:12:53.904Z,0
2017-05-06T03:13:26.183Z,0
2017-05-06T03:13:58.428Z,0
2017-05-06T03:14:30.699Z,0
2017-05-06T03:15:02.973Z,0
2017-05-06T03:15:35.335Z,0
2017-05-06T03:16:07.601Z,0
2017-05-06T03:16:39.877Z,0
2017-05-06T03:17:12.418Z,0
2017-05-06T03:17:44.697Z,0
2017-05-06T03:18:16.969Z,0
2017-05-06T03:18:49.386Z,0
2017-05-06T03:19:21.672Z,0
2017-05-06T03:19:53.949Z,0
2017-05-06T03:20:26.926Z,0
2017-05-06T03:20:59.199Z,0
2017-05-06T03:21:31.466Z,0
2017-05-06T03:22:03.739Z,0
2017-05-06T03:22:36.851Z,0
2017-05-06T03:23:09.130Z,0
2017-05-06T03:23:41.470Z,0
2017-05-06T03:24:13.756Z,0
2017-05-06T03:24:46.016Z,0
2017-05-06T03:25:18.273Z,0
2017-05-06T03:25:50.544Z,0
2017-05-06T03:26:22.830Z,0
2017-05-06T03:26:55.106Z,0
2017-05-06T03:27:27.382Z,0
2017-05-06T03:27:59.681Z,0
2017-05-06T03:28:31.942Z,0
2017-05-06T03:29:04.939Z,0
2017-05-06T03:29:37.211Z,0
2017-05-06T03:30:09.603Z,0
2017-05-06T03:30:41.871Z,0
2017-05-06T03:31:14.126Z,0
2017-05-06T03:31:46.407Z,0
2017-05-06T03:32:18.676Z,0
2017-05-06T03:32:51.887Z,0
2017-05-06T03:33:24.147Z,0
2017-05-06T03:33:56.431Z,0
2017-05-06T03:34:28.723Z,0
2017-05-06T03:35:00.994Z,0
2017-05-06T03:35:33.250Z,0
2017-05-06T03:36:05.528Z,0
2017-05-06T03:36:37.818Z,0
2017-05-06T03:37:10.084Z,0
2017-05-06T03:37:42.368Z,0
2017-05-06T03:38:14.657Z,0
2017-05-06T03:38:46.946Z,0
2017-05-06T03:39:19.250Z,0
2017-05-06T03:39:51.521Z,0
2017-05-06T03:40:23.818Z,0
2017-05-06T03:40:56.101Z,0
2017-05-06T03:41:28.936Z,0
2017-05-06T03:42:01.209Z,0
2017-05-06T03:42:33.481Z,0
2017-05-06T03:43:05.751Z,0
2017-05-06T03:43:38.088Z,0
2017-05-06T03:44:10.363Z,0
2017-05-06T03:44:42.658Z,0
2017-05-06T03:45:14.924Z,0
2017-05-06T03:45:47.191Z,0
2017-05-06T03:46:20.403Z,0
2017-05-06T03:46:52.677Z,0
2017-05-06T03:47:24.986Z,0
2017-05-06T03:47:57.273Z,0
2017-05-06T03:48:29.559Z,0
2017-05-06T03:49:01.838Z,0
2017-05-06T03:49:34.132Z,0
2017-05-06T03:50:06.408Z,0
2017-05-06T03:50:38.685Z,0
2017-05-06T03:51:10.986Z,0
2017-05-06T03:51:43.890Z,0
2017-05-06T03:52:16.158Z,0
2017-05-06T03:52:48.427Z,0
2017-05-06T03:53:20.715Z,0
2017-05-06T03:53:53.078Z,0
2017-05-06T03:54:25.369Z,0
2017-05-06T03:54:57.647Z,0
2017-05-06T03:55:29.931Z,0
2017-05-06T03:56:02.163Z,0
2017-05-06T03:56:34.571Z,0
2017-05-06T03:57:06.844Z,0
2017-05-06T03:57:39.122Z,0
2017-05-06T03:58:11.427Z,0
2017-05-06T03:58:43.717Z,0
2017-05-06T03:59:15.973Z,0
2017-05-06T03:59:48.231Z,0
2017-05-06T04:00:20.510Z,0
2017-05-06T04:00:52.771Z,0
2017-05-06T04:01:25.054Z,0
2017-05-06T04:01:57.326Z,0
2017-05-06T04:02:29.615Z,0
2017-05-06T04:03:01.922Z,0
2017-05-06T04:03:34.210Z,0
2017-05-06T04:04:06.521Z,0
2017-05-06T04:04:38.792Z,0
2017-05-06T04:05:11.066Z,0
2017-05-06T04:05:43.326Z,0
2017-05-06T04:06:15.680Z,0
2017-05-06T04:06:47.976Z,0
2017-05-06T04:07:20.239Z,0
2017-05-06T04:07:52.521Z,0
2017-05-06T04:08:24.788Z,0
2017-05-06T04:08:57.062Z,0
2017-05-06T04:09:29.416Z,0
2017-05-06T04:10:01.695Z,0
2017-05-06T04:10:33.988Z,0
2017-05-06T04:11:06.266Z,0
2017-05-06T04:11:38.524Z,0
2017-05-06T04:12:10.871Z,0
2017-05-06T04:12:43.183Z,0
2017-05-06T04:13:15.500Z,0
2017-05-06T04:13:47.800Z,0
2017-05-06T04:14:20.127Z,5
2017-05-06T04:14:52.433Z,5
2017-05-06T04:15:24.730Z,5
2017-05-06T04:15:57.047Z,5
2017-05-06T04:16:29.351Z,5
2017-05-06T04:17:01.643Z,5
2017-05-06T04:17:33.992Z,5
2017-05-06T04:18:06.312Z,5
2017-05-06T04:18:38.610Z,5
2017-05-06T04:19:10.904Z,5
2017-05-06T04:19:43.203Z,5
2017-05-06T04:20:15.487Z,5
2017-05-06T04:20:47.775Z,5
2017-05-06T04:21:20.057Z,5
2017-05-06T04:21:52.345Z,5
2017-05-06T04:22:24.721Z,5
2017-05-06T04:22:57.001Z,5
2017-05-06T04:23:29.745Z,5
2017-05-06T04:24:01.992Z,5
2017-05-06T04:24:34.259Z,5
2017-05-06T04:25:06.506Z,5
2017-05-06T04:25:38.773Z,5
2017-05-06T04:26:11.030Z,5
2017-05-06T04:26:43.289Z,10
2017-05-06T04:27:15.544Z,10
2017-05-06T04:27:47.800Z,10
2017-05-06T04:28:21.395Z,10
2017-05-06T04:28:53.656Z,10
2017-05-06T04:29:25.908Z,10
2017-05-06T04:29:58.196Z,10
2017-05-06T04:30:30.478Z,10
2017-05-06T04:31:02.733Z,10
2017-05-06T04:31:35.960Z,10
2017-05-06T04:32:08.262Z,10
2017-05-06T04:32:40.551Z,10
2017-05-06T04:33:12.814Z,10
2017-05-06T04:33:45.100Z,10
2017-05-06T04:34:17.408Z,10
2017-05-06T04:34:49.709Z,10
2017-05-06T04:35:21.998Z,10
2017-05-06T04:35:54.304Z,10
2017-05-06T04:36:26.623Z,10
2017-05-06T04:36:58.917Z,10
2017-05-06T04:37:31.243Z,10
2017-05-06T04:38:03.538Z,10
2017-05-06T04:38:35.858Z,10
2017-05-06T04:39:08.148Z,10
2017-05-06T04:39:40.437Z,15
2017-05-06T04:40:12.714Z,15
2017-05-06T04:40:44.995Z,15
2017-05-06T04:41:17.313Z,15
2017-05-06T04:41:49.611Z,15
2017-05-06T04:42:21.870Z,15
2017-05-06T04:42:54.120Z,15
2017-05-06T04:43:26.377Z,15
2017-05-06T04:43:58.630Z,15
2017-05-06T04:44:30.872Z,15
2017-05-06T04:45:03.143Z,15
2017-05-06T04:45:36.371Z,15
2017-05-06T04:46:09.408Z,15
2017-05-06T04:46:41.670Z,15
2017-05-06T04:47:13.926Z,15
2017-05-06T04:47:46.200Z,10
2017-05-06T04:48:18.453Z,15
2017-05-06T04:48:50.705Z,15
2017-05-06T04:49:23.914Z,15
2017-05-06T04:49:56.221Z,15
2017-05-06T04:50:28.549Z,15
2017-05-06T04:51:00.843Z,15
2017-05-06T04:51:33.084Z,15
2017-05-06T04:52:05.374Z,15
2017-05-06T04:52:37.666Z,15
2017-05-06T04:53:09.976Z,15
2017-05-06T04:53:42.316Z,20
2017-05-06T04:54:14.621Z,20
2017-05-06T04:54:46.909Z,20
2017-05-06T04:55:19.189Z,20
2017-05-06T04:55:51.476Z,20
2017-05-06T04:56:23.770Z,15
2017-05-06T04:56:56.073Z,20
2017-05-06T04:57:28.365Z,20
2017-05-06T04:58:00.658Z,20
2017-05-06T04:58:32.945Z,20
2017-05-06T04:59:05.245Z,20
2017-05-06T04:59:37.525Z,20
2017-05-06T05:00:09.811Z,20
2017-05-06T05:00:42.120Z,20
2017-05-06T05:01:14.419Z,20
2017-05-06T05:01:46.743Z,25
2017-05-06T05:02:19.011Z,25
2017-05-06T05:02:51.304Z,25
2017-05-06T05:03:23.557Z,25
2017-05-06T05:03:55.816Z,25
2017-05-06T05:04:28.078Z,25
2017-05-06T05:05:00.336Z,25
2017-05-06T05:05:33.285Z,25
2017-05-06T05:06:05.545Z,25
2017-05-06T05:06:37.794Z,25
2017-05-06T05:07:10.192Z,25
2017-05-06T05:07:42.451Z,25
2017-05-06T05:08:14.732Z,25
2017-05-06T05:08:46.984Z,25
2017-05-06T05:09:19.240Z,25
2017-05-06T05:09:52.308Z,25
2017-05-06T05:10:24.577Z,25
2017-05-06T05:10:56.829Z,25
2017-05-06T05:11:29.921Z,25
2017-05-06T05:12:03.495Z,30
2017-05-06T05:12:35.745Z,30
2017-05-06T05:13:08.012Z,30
2017-05-06T05:13:41.249Z,30
2017-05-06T05:14:13.535Z,30
2017-05-06T05:14:45.788Z,30
2017-05-06T05:15:18.032Z,30
2017-05-06T05:15:50.284Z,30
2017-05-06T05:16:22.531Z,30
2017-05-06T05:16:54.774Z,30
2017-05-06T05:17:27.034Z,30
2017-05-06T05:17:59.306Z,35
2017-05-06T05:18:31.575Z,30
2017-05-06T05:19:03.819Z,30
2017-05-06T05:19:36.076Z,30
2017-05-06T05:20:09.289Z,35
2017-05-06T05:20:41.544Z,35
2017-05-06T05:21:14.939Z,35
2017-05-06T05:21:47.196Z,30
2017-05-06T05:22:20.314Z,30
2017-05-06T05:22:52.556Z,35
2017-05-06T05:23:24.807Z,35
2017-05-06T05:23:57.066Z,30
2017-05-06T05:24:29.882Z,30
2017-05-06T05:25:02.153Z,30
2017-05-06T05:25:34.447Z,25
2017-05-06T05:26:06.709Z,25
2017-05-06T05:26:38.981Z,30
2017-05-06T05:27:11.925Z,30
2017-05-06T05:27:44.191Z,30
2017-05-06T05:28:16.439Z,30
2017-05-06T05:28:48.682Z,30
2017-05-06T05:29:20.932Z,30
2017-05-06T05:29:53.931Z,35
2017-05-06T05:30:26.828Z,35
2017-05-06T05:30:59.096Z,35
2017-05-06T05:31:31.354Z,35
2017-05-06T05:32:03.604Z,35
2017-05-06T05:32:35.853Z,35
2017-05-06T05:33:08.850Z,35
2017-05-06T05:33:41.113Z,35
2017-05-06T05:34:13.365Z,40
2017-05-06T05:34:45.733Z,40
2017-05-06T05:35:18.017Z,40
2017-05-06T05:35:50.285Z,40
2017-05-06T05:36:22.561Z,35
2017-05-06T05:36:54.820Z,35
2017-05-06T05:37:27.091Z,40
2017-05-06T05:37:59.488Z,40
2017-05-06T05:38:31.737Z,35
2017-05-06T05:39:03.979Z,35
2017-05-06T05:39:36.216Z,40
2017-05-06T05:40:09.437Z,40
2017-05-06T05:40:41.686Z,35
2017-05-06T05:41:14.467Z,35
2017-05-06T05:41:46.756Z,40
2017-05-06T05:42:18.994Z,40
2017-05-06T05:42:51.253Z,40
2017-05-06T05:43:24.340Z,35
2017-05-06T05:43:56.589Z,35
2017-05-06T05:44:28.830Z,35
2017-05-06T05:45:01.065Z,35
2017-05-06T05:45:33.304Z,35
2017-05-06T05:46:05.546Z,35
2017-05-06T05:46:38.450Z,35
2017-05-06T05:47:10.706Z,35
2017-05-06T05:47:42.963Z,35
2017-05-06T05:48:15.937Z,35
2017-05-06T05:48:48.195Z,35
2017-05-06T05:49:20.441Z,35
2017-05-06T05:49:52.678Z,35
2017-05-06T05:50:25.046Z,35
2017-05-06T05:50:57.298Z,40
2017-05-06T05:51:29.567Z,40
2017-05-06T05:52:01.825Z,35
2017-05-06T05:52:34.113Z,35
2017-05-06T05:53:06.396Z,35
2017-05-06T05:53:38.675Z,40
2017-05-06T05:54:10.963Z,40
2017-05-06T05:54:43.234Z,35
2017-05-06T05:55:15.516Z,35
2017-05-06T05:55:47.805Z,35
2017-05-06T05:56:20.090Z,35
2017-05-06T05:56:52.377Z,35
2017-05-06T05:57:24.677Z,35
2017-05-06T05:57:56.975Z,35
2017-05-06T05:58:29.248Z,35
2017-05-06T05:59:01.570Z,35
2017-05-06T05:59:33.881Z,40
2017-05-06T06:00:06.186Z,40
2017-05-06T06:00:38.482Z,40
2017-05-06T06:01:10.792Z,35
2017-05-06T06:01:43.090Z,40
2017-05-06T06:02:15.367Z,40
2017-05-06T06:02:47.663Z,35
2017-05-06T06:03:19.956Z,35
2017-05-06T06:03:52.258Z,35
2017-05-06T06:04:24.547Z,35
2017-05-06T06:04:56.875Z,35
2017-05-06T06:05:29.162Z,35
2017-05-06T06:06:01.455Z,35
2017-05-06T06:06:33.750Z,35
2017-05-06T06:07:06.039Z,35
2017-05-06T06:07:38.326Z,35
2017-05-06T06:08:10.622Z,35
2017-05-06T06:08:42.910Z,35
2017-05-06T06:09:15.188Z,35
2017-05-06T06:09:47.464Z,35
2017-05-06T06:10:19.757Z,35
2017-05-06T06:10:52.041Z,35
2017-05-06T06:11:24.329Z,40
2017-05-06T06:11:56.616Z,40
2017-05-06T06:12:28.905Z,40
2017-05-06T06:13:01.202Z,40
2017-05-06T06:13:33.487Z,40
2017-05-06T06:14:05.781Z,35
2017-05-06T06:14:38.081Z,35
2017-05-06T06:15:10.374Z,35
2017-05-06T06:15:42.657Z,40
2017-05-06T06:16:14.946Z,40
2017-05-06T06:16:47.239Z,40
2017-05-06T06:17:19.533Z,45
2017-05-06T06:17:51.822Z,45
2017-05-06T06:18:24.111Z,40
2017-05-06T06:18:56.399Z,45
2017-05-06T06:19:28.734Z,40
2017-05-06T06:20:01.030Z,40
2017-05-06T06:20:33.302Z,45
2017-05-06T06:21:05.599Z,45
2017-05-06T06:21:37.889Z,45
2017-05-06T06:22:10.175Z,45
2017-05-06T06:22:42.477Z,50
2017-05-06T06:23:14.766Z,50
2017-05-06T06:23:47.052Z,50
2017-05-06T06:24:19.328Z,50
2017-05-06T06:24:51.608Z,45
2017-05-06T06:25:23.893Z,45
2017-05-06T06:25:56.199Z,50
2017-05-06T06:26:28.488Z,45
2017-05-06T06:27:00.778Z,50
2017-05-06T06:27:33.080Z,50
2017-05-06T06:28:05.363Z,50
2017-05-06T06:28:37.639Z,55
2017-05-06T06:29:09.947Z,55
2017-05-06T06:29:42.231Z,55
2017-05-06T06:30:14.553Z,55
2017-05-06T06:30:46.831Z,50
2017-05-06T06:31:19.124Z,50
2017-05-06T06:31:51.426Z,50
2017-05-06T06:32:23.721Z,50
2017-05-06T06:32:56.015Z,50
2017-05-06T06:33:28.307Z,50
2017-05-06T06:34:00.602Z,55
2017-05-06T06:34:32.891Z,55
2017-05-06T06:35:05.190Z,55
2017-05-06T06:35:37.473Z,55
2017-05-06T06:36:09.760Z,60
2017-05-06T06:36:42.042Z,60
2017-05-06T06:37:14.341Z,55
2017-05-06T06:37:46.636Z,50
2017-05-06T06:38:18.936Z,55
2017-05-06T06:38:51.232Z,55
2017-05-06T06:39:23.532Z,55
2017-05-06T06:39:55.826Z,55
2017-05-06T06:40:28.109Z,55
2017-05-06T06:41:00.398Z,50
2017-05-06T06:41:32.685Z,50
2017-05-06T06:42:06.006Z,50
2017-05-06T06:42:38.301Z,50
2017-05-06T06:43:10.548Z,55
2017-05-06T06:43:42.806Z,60
2017-05-06T06:44:15.061Z,65
2017-05-06T06:44:47.974Z,70
2017-05-06T06:45:20.223Z,70
2017-05-06T06:45:52.479Z,65
2017-05-06T06:46:24.718Z,60
2017-05-06T06:46:56.984Z,55
2017-05-06T06:47:29.985Z,55
2017-05-06T06:48:02.368Z,55
2017-05-06T06:48:34.641Z,60
2017-05-06T06:49:06.916Z,60
2017-05-06T06:49:39.170Z,60
2017-05-06T06:50:11.409Z,60
2017-05-06T06:50:43.665Z,60
2017-05-06T06:51:15.999Z,65
2017-05-06T06:51:48.259Z,65
2017-05-06T06:52:20.547Z,65
2017-05-06T06:52:52.836Z,70
2017-05-06T06:53:25.115Z,75
2017-05-06T06:53:57.394Z,75
2017-05-06T06:54:29.686Z,70
2017-05-06T06:55:01.999Z,75
2017-05-06T06:55:34.289Z,75
2017-05-06T06:56:06.590Z,80
2017-05-06T06:56:38.886Z,80
2017-05-06T06:57:11.189Z,75
2017-05-06T06:57:43.477Z,75
2017-05-06T06:58:15.774Z,75
2017-05-06T06:58:48.072Z,80
2017-05-06T06:59:20.363Z,85
2017-05-06T06:59:52.641Z,85
2017-05-06T07:00:24.932Z,80
2017-05-06T07:00:57.235Z,80
2017-05-06T07:01:29.528Z,80
2017-05-06T07:02:01.821Z,75
2017-05-06T07:02:34.076Z,75
2017-05-06T07:03:06.330Z,70
2017-05-06T07:03:38.595Z,70
2017-05-06T07:04:10.865Z,65
2017-05-06T07:04:43.119Z,70
2017-05-06T07:05:15.365Z,75
2017-05-06T07:05:47.633Z,75
2017-05-06T07:06:19.885Z,70
2017-05-06T07:06:52.142Z,75
2017-05-06T07:07:24.401Z,75
2017-05-06T07:07:57.344Z,75
2017-05-06T07:08:29.592Z,70
2017-05-06T07:09:01.914Z,70
2017-05-06T07:09:34.176Z,70
2017-05-06T07:10:06.439Z,70
2017-05-06T07:10:38.690Z,65
2017-05-06T07:11:10.962Z,55
2017-05-06T07:11:43.212Z,55
2017-05-06T07:12:15.489Z,60
2017-05-06T07:12:47.790Z,60
2017-05-06T07:13:20.078Z,60
2017-05-06T07:13:52.365Z,55
2017-05-06T07:14:24.652Z,50
2017-05-06T07:14:56.940Z,50
2017-05-06T07:15:29.240Z,55
2017-05-06T07:16:01.529Z,55
2017-05-06T07:16:33.831Z,55
2017-05-06T07:17:06.110Z,55
2017-05-06T07:17:38.390Z,55
2017-05-06T07:18:10.678Z,55
2017-05-06T07:18:42.962Z,55
2017-05-06T07:19:15.264Z,60
2017-05-06T07:19:47.551Z,60
2017-05-06T07:20:19.835Z,65
2017-05-06T07:20:52.125Z,65
2017-05-06T07:21:24.415Z,65
2017-05-06T07:21:56.700Z,65
2017-05-06T07:22:28.980Z,65
2017-05-06T07:23:01.274Z,70
2017-05-06T07:23:33.565Z,70
2017-05-06T07:24:05.869Z,75
2017-05-06T07:24:38.163Z,75
2017-05-06T07:25:10.440Z,75
2017-05-06T07:25:42.728Z,75
2017-05-06T07:26:15.014Z,75
2017-05-06T07:26:47.284Z,70
2017-05-06T07:27:19.570Z,70
2017-05-06T07:27:51.864Z,70
2017-05-06T07:28:24.146Z,75
2017-05-06T07:28:56.423Z,75
2017-05-06T07:29:28.744Z,75
2017-05-06T07:30:01.020Z,70
2017-05-06T07:30:33.313Z,70
2017-05-06T07:31:05.603Z,70
2017-05-06T07:31:37.918Z,70
2017-05-06T07:32:10.205Z,75
2017-05-06T07:32:42.491Z,75
2017-05-06T07:33:14.794Z,80
2017-05-06T07:33:47.111Z,85
2017-05-06T07:34:19.419Z,80
2017-05-06T07:34:51.706Z,80
2017-05-06T07:35:23.989Z,75
2017-05-06T07:35:56.265Z,75
2017-05-06T07:36:28.558Z,75
2017-05-06T07:37:00.861Z,75
2017-05-06T07:37:33.144Z,80
2017-05-06T07:38:05.443Z,80
2017-05-06T07:38:37.733Z,80
2017-05-06T07:39:10.015Z,80
2017-05-06T07:39:42.306Z,75
2017-05-06T07:40:14.580Z,70
2017-05-06T07:40:46.869Z,75
2017-05-06T07:41:19.166Z,75
2017-05-06T07:41:51.453Z,75
2017-05-06T07:42:23.746Z,70
2017-05-06T07:42:56.048Z,70
2017-05-06T07:43:28.342Z,75
2017-05-06T07:44:00.653Z,75
2017-05-06T07:44:32.937Z,75
2017-05-06T07:45:05.231Z,75
2017-05-06T07:45:37.527Z,75
2017-05-06T07:46:09.812Z,75
2017-05-06T07:46:42.097Z,75
2017-05-06T07:47:14.394Z,85
2017-05-06T07:47:46.693Z,85
2017-05-06T07:48:19.009Z,80
2017-05-06T07:48:51.307Z,75
2017-05-06T07:49:23.600Z,75
2017-05-06T07:49:55.890Z,75
2017-05-06T07:50:28.177Z,75
2017-05-06T07:51:00.470Z,75